Time;durP1;ratioP1;P1;durP2;ratioP2;P2;SDS_P1;SDS_P2;PMS_P1;PMS_P2;Temp;Humidity;BMP_temperature;BMP_pressure;BME280_temperature;BME280_humidity;BME280_pressure;Samples;Min_cycle;Max_cycle;Signal;HPM_P1;HPM_P2
2023/01/03 00:00:55;;;;;;;;;;;4.30;99.90;;;;;;8390780;28;19971;-72
2023/01/03 00:04:57;;;;;;;;;;;4.20;99.90;;;;;;8382798;28;19929;-72
2023/01/03 00:08:59;;;;;;;;;;;4.20;99.90;;;;;;8389619;28;19925;-72
2023/01/03 00:13:01;;;;;;;;;;;4.20;99.90;;;;;;8371280;28;19930;-72
2023/01/03 00:17:03;;;;;;;;;;;4.20;99.90;;;;;;8376661;28;19935;-72
2023/01/03 00:21:05;;;;;;;;;;;4.20;99.90;;;;;;8366400;28;19924;-72
2023/01/03 00:25:07;;;;;;;;;;;4.20;99.90;;;;;;8390501;28;19925;-72
2023/01/03 00:29:10;;;;;;;;;;;4.30;99.90;;;;;;8393143;28;20288;-73
2023/01/03 00:33:12;;;;;;;;;;;4.40;99.90;;;;;;8394399;28;20008;-73
2023/01/03 00:37:13;;;;;;;;;;;4.40;99.90;;;;;;8385899;28;20002;-73
2023/01/03 00:41:16;;;;;;;;;;;4.50;99.90;;;;;;8396013;28;19932;-72
2023/01/03 00:45:18;;;;;;;;;;;4.50;99.90;;;;;;8391224;28;19925;-72
2023/01/03 00:49:21;;;;;;;;;;;4.50;99.90;;;;;;8390299;28;19924;-72
2023/01/03 00:53:23;;;;;;;;;;;4.50;99.90;;;;;;8385485;28;19929;-72
2023/01/03 00:57:24;;;;;;;;;;;4.60;99.90;;;;;;8386733;28;19929;-73
2023/01/03 01:01:28;;;;;;;;;;;4.70;99.90;;;;;;8382306;28;19924;-72
2023/01/03 01:05:30;;;;;;;;;;;4.70;99.90;;;;;;8390309;28;19969;-73
2023/01/03 01:09:35;;;;;;;;;;;4.70;99.90;;;;;;8390853;28;20462;-72
2023/01/03 01:13:37;;;;;;;;;;;4.60;99.90;;;;;;8391887;28;20624;-73
2023/01/03 01:17:39;;;;;;;;;;;4.50;99.90;;;;;;8390262;28;19936;-72
2023/01/03 01:21:41;;;;;;;;;;;4.50;99.90;;;;;;8369532;28;20299;-72
2023/01/03 01:25:43;;;;;;;;;;;4.40;99.90;;;;;;8385929;28;19943;-72
2023/01/03 01:29:44;;;;;;;;;;;4.40;99.90;;;;;;8391785;28;20387;-72
2023/01/03 01:33:46;;;;;;;;;;;4.40;99.90;;;;;;8374103;28;19932;-72
2023/01/03 01:37:48;;;;;;;;;;;4.40;99.90;;;;;;8391081;28;19931;-73
2023/01/03 01:46:22;;;;;;;;;;;4.40;99.90;;;;;;8384258;28;19924;-73
2023/01/03 01:50:27;;;;;;;;;;;4.30;99.90;;;;;;8388626;28;20944;-72
2023/01/03 01:54:29;;;;;;;;;;;4.20;99.90;;;;;;8392047;28;19925;-72
2023/01/03 01:58:33;;;;;;;;;;;4.20;99.90;;;;;;8361707;28;19929;-73
2023/01/03 02:02:35;;;;;;;;;;;4.10;99.90;;;;;;8383553;28;19931;-73
2023/01/03 02:06:37;;;;;;;;;;;4.10;99.90;;;;;;8392374;28;19930;-72
2023/01/03 02:10:47;;;;;;;;;;;4.00;99.90;;;;;;8393223;28;19935;-73
2023/01/03 02:15:04;;;;;;;;;;;3.90;99.90;;;;;;8389290;28;20383;-72
2023/01/03 02:19:21;;;;;;;;;;;3.90;99.90;;;;;;8385336;28;19932;-72
2023/01/03 02:23:25;;;;;;;;;;;3.80;99.90;;;;;;8392387;28;19931;-73
2023/01/03 02:27:45;;;;;;;;;;;3.80;99.90;;;;;;8400995;28;19971;-72
2023/01/03 02:31:56;;;;;;;;;;;3.90;99.90;;;;;;8378635;28;19931;-73
2023/01/03 02:36:18;;;;;;;;;;;3.90;99.90;;;;;;8384134;28;19924;-72
2023/01/03 02:40:32;;;;;;;;;;;3.90;99.90;;;;;;8393036;28;19936;-72
2023/01/03 02:44:34;;;;;;;;;;;3.90;99.90;;;;;;8381185;28;19925;-73
2023/01/03 02:48:57;;;;;;;;;;;3.90;99.90;;;;;;8386364;28;19928;-72
2023/01/03 02:53:01;;;;;;;;;;;3.90;99.90;;;;;;8387241;28;19931;-72
2023/01/03 02:57:05;;;;;;;;;;;3.90;99.90;;;;;;8391776;28;19938;-72
2023/01/03 03:01:09;;;;;;;;;;;3.90;99.90;;;;;;8383705;28;19935;-72
2023/01/03 03:05:18;;;;;;;;;;;3.80;99.90;;;;;;8395507;28;20261;-72
2023/01/03 03:09:20;;;;;;;;;;;3.80;99.90;;;;;;8391951;28;20418;-72
2023/01/03 03:13:34;;;;;;;;;;;3.80;99.90;;;;;;8385382;28;20391;-73
2023/01/03 03:17:37;;;;;;;;;;;3.80;99.90;;;;;;8396923;28;19925;-72
2023/01/03 03:26:03;;;;;;;;;;;3.70;99.90;;;;;;8389555;28;20398;-72
2023/01/03 03:30:06;;;;;;;;;;;3.70;99.90;;;;;;8375516;28;20361;-72
2023/01/03 03:34:14;;;;;;;;;;;3.80;99.90;;;;;;8384941;28;19933;-73
2023/01/03 03:38:20;;;;;;;;;;;3.90;99.90;;;;;;8387168;28;19935;-72
2023/01/03 03:46:50;;;;;;;;;;;4.10;99.90;;;;;;8390502;28;19925;-72
2023/01/03 03:50:59;;;;;;;;;;;4.10;99.90;;;;;;8390591;28;20012;-72
2023/01/03 03:55:09;;;;;;;;;;;4.20;99.90;;;;;;8391430;28;19925;-72
2023/01/03 03:59:11;;;;;;;;;;;4.20;99.90;;;;;;8392334;28;19928;-72
2023/01/03 04:03:14;;;;;;;;;;;4.10;99.90;;;;;;8385180;28;19929;-72
2023/01/03 04:22:20;;;;;;;;;;;4.10;99.90;;;;;;8384728;28;20062;-72
2023/01/03 04:26:21;;;;;;;;;;;4.20;99.90;;;;;;8387721;28;19966;-72
2023/01/03 04:30:23;;;;;;;;;;;4.20;99.90;;;;;;8371878;28;19960;-72
2023/01/03 04:34:25;;;;;;;;;;;4.20;99.90;;;;;;8365143;28;19943;-72
2023/01/03 04:38:26;;;;;;;;;;;4.20;99.90;;;;;;8389011;28;19931;-72
2023/01/03 04:46:48;;;;;;;;;;;4.20;99.90;;;;;;8384750;28;19931;-72
2023/01/03 04:50:55;;;;;;;;;;;4.10;99.90;;;;;;8392715;28;19932;-72
2023/01/03 04:54:56;;;;;;;;;;;4.10;99.90;;;;;;8369758;28;19935;-72
2023/01/03 04:58:58;;;;;;;;;;;4.00;99.90;;;;;;8385957;28;19964;-72
2023/01/03 05:03:00;;;;;;;;;;;4.00;99.90;;;;;;8385334;28;19932;-73
2023/01/03 05:07:01;;;;;;;;;;;3.90;99.90;;;;;;8383451;28;19971;-72
2023/01/03 05:11:04;;;;;;;;;;;3.90;99.90;;;;;;8389666;28;19982;-73
2023/01/03 05:15:06;;;;;;;;;;;3.80;99.90;;;;;;8380411;28;20341;-72
2023/01/03 05:19:08;;;;;;;;;;;3.80;99.90;;;;;;8387749;28;19931;-72
2023/01/03 05:27:35;;;;;;;;;;;3.70;99.90;;;;;;8385999;28;20111;-72
2023/01/03 05:31:37;;;;;;;;;;;3.60;99.90;;;;;;8380299;28;19963;-72
2023/01/03 05:35:39;;;;;;;;;;;3.50;99.90;;;;;;8382553;28;20350;-72
2023/01/03 05:39:40;;;;;;;;;;;3.50;99.90;;;;;;8385897;28;19932;-72
2023/01/03 05:43:42;;;;;;;;;;;3.40;99.90;;;;;;8387002;28;20617;-72
2023/01/03 05:47:44;;;;;;;;;;;3.40;99.90;;;;;;8385270;28;20422;-72
2023/01/03 05:51:45;;;;;;;;;;;3.30;99.90;;;;;;8372020;28;19925;-72
2023/01/03 05:55:47;;;;;;;;;;;3.30;99.90;;;;;;8399946;28;20366;-72
2023/01/03 05:59:49;;;;;;;;;;;3.30;99.90;;;;;;8383335;28;20019;-72
2023/01/03 06:03:50;;;;;;;;;;;3.20;99.90;;;;;;8382993;28;19924;-72
2023/01/03 06:07:52;;;;;;;;;;;3.30;99.90;;;;;;8383066;28;20406;-72
2023/01/03 06:11:54;;;;;;;;;;;3.30;99.90;;;;;;8379240;28;19963;-72
2023/01/03 06:20:25;;;;;;;;;;;3.30;99.90;;;;;;8378240;28;19924;-72
2023/01/03 06:24:27;;;;;;;;;;;3.30;99.90;;;;;;8386015;28;19925;-72
2023/01/03 06:28:29;;;;;;;;;;;3.30;99.90;;;;;;8383039;28;19925;-72
2023/01/03 06:32:30;;;;;;;;;;;3.30;99.90;;;;;;8394271;28;19978;-72
2023/01/03 06:36:33;;;;;;;;;;;3.30;99.90;;;;;;8387307;28;19928;-72
2023/01/03 06:40:34;;;;;;;;;;;3.40;99.90;;;;;;8378154;28;19929;-72
2023/01/03 06:44:41;;;;;;;;;;;3.40;99.90;;;;;;8376006;28;20293;-72
2023/01/03 06:53:12;;;;;;;;;;;3.50;99.90;;;;;;8380411;28;19931;-72
2023/01/03 06:57:13;;;;;;;;;;;3.50;99.90;;;;;;8377898;28;19967;-72
2023/01/03 07:01:27;;;;;;;;;;;3.60;99.90;;;;;;8390223;28;20294;-72
2023/01/03 07:05:29;;;;;;;;;;;3.70;99.90;;;;;;8392756;28;19928;-72
2023/01/03 07:09:30;;;;;;;;;;;3.70;99.90;;;;;;8398827;28;20284;-72
2023/01/03 07:17:53;;;;;;;;;;;3.90;99.90;;;;;;8390676;28;19929;-72
2023/01/03 07:21:55;;;;;;;;;;;4.00;99.90;;;;;;8379499;28;19929;-72
2023/01/03 07:25:56;;;;;;;;;;;4.10;99.90;;;;;;8378335;28;20383;-72
2023/01/03 07:29:58;;;;;;;;;;;4.10;99.90;;;;;;8374416;28;20311;-72
2023/01/03 07:34:00;;;;;;;;;;;4.20;99.90;;;;;;8373674;28;19935;-72
2023/01/03 07:38:02;;;;;;;;;;;4.20;99.90;;;;;;8384366;28;19929;-72
2023/01/03 07:46:24;;;;;;;;;;;4.30;99.90;;;;;;8390924;28;19932;-72
2023/01/03 07:50:26;;;;;;;;;;;4.30;99.90;;;;;;8392868;28;19928;-72
2023/01/03 07:54:27;;;;;;;;;;;4.40;99.90;;;;;;8389030;28;19964;-72
2023/01/03 07:58:31;;;;;;;;;;;4.40;99.90;;;;;;8376710;28;19947;-72
2023/01/03 08:02:34;;;;;;;;;;;4.40;99.90;;;;;;8392260;28;19931;-72
2023/01/03 08:06:36;;;;;;;;;;;4.50;99.90;;;;;;8387752;28;20384;-72
2023/01/03 08:14:58;;;;;;;;;;;4.60;99.90;;;;;;8391091;28;19928;-72
2023/01/03 08:19:00;;;;;;;;;;;4.70;99.90;;;;;;8398395;28;20007;-72
2023/01/03 08:23:01;;;;;;;;;;;4.70;99.90;;;;;;8385682;28;19925;-72
2023/01/03 08:27:03;;;;;;;;;;;4.80;99.90;;;;;;8396709;28;19924;-72
2023/01/03 08:31:32;;;;;;;;;;;4.80;99.90;;;;;;8371302;28;19928;-72
2023/01/03 08:35:35;;;;;;;;;;;4.90;99.90;;;;;;8370169;28;19977;-72
2023/01/03 08:39:43;;;;;;;;;;;5.00;99.90;;;;;;8396688;28;20261;-72
2023/01/03 08:43:46;;;;;;;;;;;5.00;99.90;;;;;;8367582;28;19931;-72
2023/01/03 08:47:47;;;;;;;;;;;5.10;99.90;;;;;;8384764;28;20296;-72
2023/01/03 08:51:49;;;;;;;;;;;5.20;99.90;;;;;;8387811;28;19925;-72
2023/01/03 08:55:51;;;;;;;;;;;5.20;99.90;;;;;;8385338;28;19955;-72
2023/01/03 08:59:52;;;;;;;;;;;5.30;99.90;;;;;;8386452;28;19925;-73
2023/01/03 09:03:54;;;;;;;;;;;5.40;99.90;;;;;;8372841;28;19932;-72
2023/01/03 09:07:57;;;;;;;;;;;5.40;99.90;;;;;;8370868;28;19932;-72
2023/01/03 09:11:58;;;;;;;;;;;5.50;99.90;;;;;;8385111;28;19925;-72
2023/01/03 09:16:04;;;;;;;;;;;5.60;99.90;;;;;;8381477;28;20027;-72
2023/01/03 09:20:07;;;;;;;;;;;5.60;99.90;;;;;;8374774;28;19935;-72
2023/01/03 09:24:08;;;;;;;;;;;5.70;99.90;;;;;;8384810;28;20282;-72
2023/01/03 09:28:10;;;;;;;;;;;5.80;99.90;;;;;;8378980;28;20385;-72
2023/01/03 09:32:11;;;;;;;;;;;5.90;99.90;;;;;;8396299;28;19928;-72
2023/01/03 09:36:13;;;;;;;;;;;6.00;99.90;;;;;;8370591;28;20471;-72
2023/01/03 09:40:15;;;;;;;;;;;6.00;99.90;;;;;;8373193;28;20295;-72
2023/01/03 09:44:16;;;;;;;;;;;6.10;99.90;;;;;;8391590;28;19973;-72
2023/01/03 09:48:28;;;;;;;;;;;6.20;99.90;;;;;;8379469;28;19943;-72
2023/01/03 10:05:48;;;;;;;;;;;6.50;99.90;;;;;;8378353;28;19928;-72
2023/01/03 10:09:59;;;;;;;;;;;6.60;99.90;;;;;;8387551;28;19925;-72
2023/01/03 10:14:04;;;;;;;;;;;6.60;99.90;;;;;;8390265;28;19932;-72
2023/01/03 10:18:24;;;;;;;;;;;6.60;99.90;;;;;;8391045;28;19939;-73
2023/01/03 10:22:27;;;;;;;;;;;6.70;99.90;;;;;;8386964;28;19932;-72
2023/01/03 10:26:29;;;;;;;;;;;6.70;99.90;;;;;;8391649;28;20371;-72
2023/01/03 10:30:42;;;;;;;;;;;6.80;99.90;;;;;;8392676;28;19924;-72
2023/01/03 10:34:48;;;;;;;;;;;6.80;99.90;;;;;;8397735;28;19960;-72
2023/01/03 10:39:05;;;;;;;;;;;6.90;99.90;;;;;;8400131;28;20380;-72
2023/01/03 10:43:15;;;;;;;;;;;6.90;99.90;;;;;;8387462;28;20371;-72
2023/01/03 10:47:16;;;;;;;;;;;7.00;99.90;;;;;;8398116;28;20023;-72
2023/01/03 10:51:27;;;;;;;;;;;7.00;99.90;;;;;;8396686;28;19980;-72
2023/01/03 10:55:31;;;;;;;;;;;7.00;99.90;;;;;;8398955;28;19983;-73
2023/01/03 10:59:33;;;;;;;;;;;7.10;99.90;;;;;;8396783;28;20289;-72
2023/01/03 11:03:38;;;;;;;;;;;7.10;99.90;;;;;;8390990;28;19924;-72
2023/01/03 11:07:44;;;;;;;;;;;7.10;99.90;;;;;;8397626;28;19924;-72
2023/01/03 11:11:52;;;;;;;;;;;7.20;99.90;;;;;;8393768;28;20395;-72
2023/01/03 11:15:54;;;;;;;;;;;7.30;99.90;;;;;;8394487;28;20059;-72
2023/01/03 11:19:56;;;;;;;;;;;7.40;99.90;;;;;;8398590;28;20694;-73
2023/01/03 11:24:01;;;;;;;;;;;7.50;99.90;;;;;;8378497;28;19967;-72
2023/01/03 11:28:14;;;;;;;;;;;7.60;99.90;;;;;;8391300;28;19924;-72
2023/01/03 11:32:23;;;;;;;;;;;7.60;99.90;;;;;;8392463;28;20001;-72
2023/01/03 11:36:27;;;;;;;;;;;7.60;99.90;;;;;;8398837;28;19924;-72
2023/01/03 11:40:29;;;;;;;;;;;7.60;99.90;;;;;;8382908;28;19931;-73
2023/01/03 11:44:44;;;;;;;;;;;7.70;99.90;;;;;;8394818;28;19924;-72
2023/01/03 11:49:02;;;;;;;;;;;7.70;99.90;;;;;;8381366;28;19924;-72
2023/01/03 11:53:10;;;;;;;;;;;7.70;99.90;;;;;;8367818;28;20000;-72
2023/01/03 11:57:19;;;;;;;;;;;7.80;99.90;;;;;;8395978;28;20335;-72
2023/01/03 12:01:36;;;;;;;;;;;7.80;99.90;;;;;;8391999;28;19924;-72
2023/01/03 12:05:40;;;;;;;;;;;7.90;99.90;;;;;;8390073;28;19931;-73
2023/01/03 12:09:45;;;;;;;;;;;7.90;99.90;;;;;;8372392;28;19929;-72
2023/01/03 12:14:05;;;;;;;;;;;8.00;99.90;;;;;;8388200;28;19974;-72
2023/01/03 12:18:16;;;;;;;;;;;8.00;99.90;;;;;;8392752;28;19956;-72
2023/01/03 12:22:21;;;;;;;;;;;8.00;99.90;;;;;;8393423;28;19935;-72
2023/01/03 12:26:23;;;;;;;;;;;8.00;99.90;;;;;;8394391;28;19971;-72
2023/01/03 12:30:25;;;;;;;;;;;8.10;99.90;;;;;;8384924;28;19929;-72
2023/01/03 12:34:45;;;;;;;;;;;8.10;99.90;;;;;;8382212;28;19925;-72
2023/01/03 12:38:54;;;;;;;;;;;8.10;99.90;;;;;;8399691;28;19924;-73
2023/01/03 12:43:02;;;;;;;;;;;8.20;99.90;;;;;;8390905;28;19929;-73
2023/01/03 12:47:05;;;;;;;;;;;8.30;99.90;;;;;;8399799;28;19924;-73
2023/01/03 12:51:06;;;;;;;;;;;8.30;99.90;;;;;;8394666;28;19929;-72
2023/01/03 12:55:35;;;;;;;;;;;8.30;99.90;;;;;;8391448;28;19925;-72
2023/01/03 12:59:45;;;;;;;;;;;8.40;99.90;;;;;;8396286;28;19931;-72
2023/01/03 13:03:48;;;;;;;;;;;8.30;99.90;;;;;;8387968;28;19924;-72
2023/01/03 13:07:54;;;;;;;;;;;8.30;99.90;;;;;;8378181;28;19947;-72
2023/01/03 13:11:58;;;;;;;;;;;8.30;99.90;;;;;;8390228;28;20329;-72
2023/01/03 13:16:20;;;;;;;;;;;8.30;99.90;;;;;;8400887;28;19925;-72
2023/01/03 13:20:30;;;;;;;;;;;8.30;99.90;;;;;;8367757;28;19924;-72
2023/01/03 13:24:38;;;;;;;;;;;8.30;99.90;;;;;;8381224;28;20031;-73
2023/01/03 13:28:39;;;;;;;;;;;8.30;99.90;;;;;;8373451;28;20410;-72
2023/01/03 13:33:03;;;;;;;;;;;8.40;99.90;;;;;;8389993;28;19979;-72
2023/01/03 13:37:05;;;;;;;;;;;8.50;99.90;;;;;;8387415;28;20273;-73
2023/01/03 13:41:25;;;;;;;;;;;8.60;99.90;;;;;;8381586;28;19972;-72
2023/01/03 13:45:30;;;;;;;;;;;8.70;99.90;;;;;;8385037;28;19933;-72
2023/01/03 13:49:32;;;;;;;;;;;8.70;99.90;;;;;;8389168;28;19931;-73
2023/01/03 13:53:36;;;;;;;;;;;8.70;99.90;;;;;;8374203;28;19983;-72
2023/01/03 13:57:50;;;;;;;;;;;8.80;99.90;;;;;;8366555;28;20331;-73
2023/01/03 14:02:11;;;;;;;;;;;9.00;99.90;;;;;;8385466;28;19928;-73
2023/01/03 14:06:30;;;;;;;;;;;9.00;99.90;;;;;;8389925;28;19929;-73
2023/01/03 14:10:48;;;;;;;;;;;9.00;99.90;;;;;;8388974;28;19946;-73
2023/01/03 14:14:54;;;;;;;;;;;8.90;99.90;;;;;;8383450;28;19930;-73
2023/01/03 14:19:14;;;;;;;;;;;8.80;99.90;;;;;;8384767;28;19932;-73
2023/01/03 14:23:16;;;;;;;;;;;8.70;99.90;;;;;;8372972;28;19931;-72
2023/01/03 14:27:39;;;;;;;;;;;8.60;99.90;;;;;;8385468;28;19924;-72
2023/01/03 14:31:43;;;;;;;;;;;8.50;99.90;;;;;;8383518;28;19928;-72
2023/01/03 14:35:45;;;;;;;;;;;8.50;99.90;;;;;;8388244;28;20376;-72
2023/01/03 14:39:54;;;;;;;;;;;8.40;99.90;;;;;;8377776;28;20012;-73
2023/01/03 14:44:15;;;;;;;;;;;8.40;99.90;;;;;;8387218;28;19924;-72
2023/01/03 14:48:17;;;;;;;;;;;8.40;99.90;;;;;;8389265;28;20244;-73
2023/01/03 14:52:25;;;;;;;;;;;8.40;99.90;;;;;;8365136;28;19932;-73
2023/01/03 14:56:27;;;;;;;;;;;8.40;99.90;;;;;;8375333;28;19925;-73
2023/01/03 15:00:30;;;;;;;;;;;8.40;99.90;;;;;;8387930;28;20680;-72
2023/01/03 15:04:39;;;;;;;;;;;8.40;99.90;;;;;;8369940;28;19931;-72
2023/01/03 15:08:42;;;;;;;;;;;8.40;99.90;;;;;;8390784;28;19934;-72
2023/01/03 15:12:48;;;;;;;;;;;8.40;99.90;;;;;;8389948;28;20003;-73
2023/01/03 15:16:50;;;;;;;;;;;8.40;99.90;;;;;;8384128;28;20307;-72
2023/01/03 15:20:54;;;;;;;;;;;8.40;99.90;;;;;;8379609;28;19924;-72
2023/01/03 15:25:03;;;;;;;;;;;8.30;99.90;;;;;;8381413;28;19925;-72
2023/01/03 15:29:05;;;;;;;;;;;8.30;99.90;;;;;;8380478;28;19925;-72
2023/01/03 15:33:31;;;;;;;;;;;8.20;99.90;;;;;;8377744;28;19971;-72
2023/01/03 15:37:33;;;;;;;;;;;8.20;99.90;;;;;;8393895;28;20493;-72
2023/01/03 15:51:26;;;;;;;;;;;8.10;99.90;;;;;;8378146;28;20291;-72
2023/01/03 15:55:28;;;;;;;;;;;8.10;99.90;;;;;;8381262;28;19951;-72
2023/01/03 15:59:33;;;;;;;;;;;8.10;99.90;;;;;;8382382;28;19924;-72
2023/01/03 16:03:41;;;;;;;;;;;8.00;99.90;;;;;;8371359;28;19981;-73
2023/01/03 16:07:43;;;;;;;;;;;8.00;99.90;;;;;;8386154;28;20038;-72
2023/01/03 16:11:46;;;;;;;;;;;8.00;99.90;;;;;;8377495;28;19952;-72
2023/01/03 16:15:48;;;;;;;;;;;8.00;99.90;;;;;;8383054;28;19932;-72
2023/01/03 16:19:50;;;;;;;;;;;8.00;99.90;;;;;;8388759;28;19932;-73
2023/01/03 16:23:51;;;;;;;;;;;8.00;99.90;;;;;;8389639;28;20376;-72
2023/01/03 16:27:53;;;;;;;;;;;8.00;99.90;;;;;;8388738;28;19925;-72
2023/01/03 16:31:55;;;;;;;;;;;8.00;99.90;;;;;;8381518;28;19932;-72
2023/01/03 16:35:57;;;;;;;;;;;8.00;99.90;;;;;;8381189;28;19929;-72
2023/01/03 16:39:58;;;;;;;;;;;8.00;99.90;;;;;;8372933;28;19928;-72
2023/01/03 16:44:00;;;;;;;;;;;8.10;99.90;;;;;;8386804;28;19928;-72
2023/01/03 16:48:02;;;;;;;;;;;8.10;99.90;;;;;;8379618;28;19932;-73
2023/01/03 16:52:04;;;;;;;;;;;8.10;99.90;;;;;;8387382;28;20992;-72
2023/01/03 16:56:08;;;;;;;;;;;8.10;99.90;;;;;;8372997;28;19935;-73
2023/01/03 17:00:14;;;;;;;;;;;8.10;99.90;;;;;;8375905;28;19925;-72
2023/01/03 17:04:16;;;;;;;;;;;8.10;99.90;;;;;;8366795;28;19924;-72
2023/01/03 17:08:17;;;;;;;;;;;8.10;99.90;;;;;;8383223;28;19931;-72
2023/01/03 17:12:21;;;;;;;;;;;8.10;99.90;;;;;;8385072;28;19928;-72
2023/01/03 17:16:23;;;;;;;;;;;8.10;99.90;;;;;;8372778;28;19982;-72
2023/01/03 17:20:24;;;;;;;;;;;8.10;99.90;;;;;;8378467;28;21461;-72
2023/01/03 17:24:28;;;;;;;;;;;8.10;99.90;;;;;;8377352;28;19924;-72
2023/01/03 17:28:29;;;;;;;;;;;8.10;99.90;;;;;;8387010;28;19939;-73
2023/01/03 17:32:32;;;;;;;;;;;8.10;99.90;;;;;;8377853;28;20383;-73
2023/01/03 17:36:34;;;;;;;;;;;8.20;99.90;;;;;;8366107;28;20422;-72
2023/01/03 17:40:36;;;;;;;;;;;8.20;99.90;;;;;;8365450;28;19947;-72
2023/01/03 17:44:38;;;;;;;;;;;8.20;99.90;;;;;;8385916;28;20164;-72
2023/01/03 17:53:00;;;;;;;;;;;8.20;99.90;;;;;;8380350;28;19991;-72
2023/01/03 17:57:02;;;;;;;;;;;8.20;99.90;;;;;;8380066;28;19971;-72
2023/01/03 18:01:06;;;;;;;;;;;8.30;99.90;;;;;;8393013;28;20379;-71
2023/01/03 18:05:11;;;;;;;;;;;8.30;99.90;;;;;;8381112;28;19987;-72
2023/01/03 18:09:19;;;;;;;;;;;8.30;99.90;;;;;;8369761;28;20375;-72
2023/01/03 18:13:23;;;;;;;;;;;8.30;99.90;;;;;;8381699;28;19931;-71
2023/01/03 18:17:32;;;;;;;;;;;8.30;99.90;;;;;;8365710;28;19956;-71
2023/01/03 18:21:34;;;;;;;;;;;8.30;99.90;;;;;;8361663;28;19933;-72
2023/01/03 18:25:35;;;;;;;;;;;8.30;99.90;;;;;;8361293;28;19968;-72
2023/01/03 18:29:38;;;;;;;;;;;8.30;99.90;;;;;;8384330;28;19960;-72
2023/01/03 18:33:39;;;;;;;;;;;8.30;99.90;;;;;;8371525;28;19928;-73
2023/01/03 18:37:41;;;;;;;;;;;8.30;99.90;;;;;;8375489;28;20913;-72
2023/01/03 18:41:44;;;;;;;;;;;8.40;99.90;;;;;;8376009;28;20280;-72
2023/01/03 18:45:46;;;;;;;;;;;8.40;99.90;;;;;;8378210;28;19925;-72
2023/01/03 18:49:50;;;;;;;;;;;8.40;99.90;;;;;;8374458;28;19929;-72
2023/01/03 18:53:54;;;;;;;;;;;8.40;99.90;;;;;;8363409;28;19931;-72
2023/01/03 18:57:59;;;;;;;;;;;8.40;99.90;;;;;;8378869;28;20382;-72
2023/01/03 19:02:00;;;;;;;;;;;8.40;99.90;;;;;;8365143;28;19932;-72
2023/01/03 19:06:09;;;;;;;;;;;8.40;99.90;;;;;;8393092;28;19924;-72
2023/01/03 19:10:17;;;;;;;;;;;8.40;99.90;;;;;;8376002;28;19967;-72
2023/01/03 19:14:19;;;;;;;;;;;8.40;99.90;;;;;;8385153;28;20405;-72
2023/01/03 19:18:21;;;;;;;;;;;8.40;99.90;;;;;;8379805;28;20097;-72
2023/01/03 19:22:27;;;;;;;;;;;8.40;99.90;;;;;;8356361;28;20386;-72
2023/01/03 19:26:31;;;;;;;;;;;8.40;99.90;;;;;;8379552;28;20221;-72
2023/01/03 19:30:36;;;;;;;;;;;8.40;99.90;;;;;;8377129;28;20395;-72
2023/01/03 19:34:38;;;;;;;;;;;8.40;99.90;;;;;;8380730;28;19936;-72
2023/01/03 19:38:40;;;;;;;;;;;8.40;99.90;;;;;;8384576;28;19932;-72
2023/01/03 19:42:47;;;;;;;;;;;8.40;99.90;;;;;;8364201;28;19924;-72
2023/01/03 19:46:49;;;;;;;;;;;8.40;99.90;;;;;;8369825;28;20436;-72
2023/01/03 19:50:51;;;;;;;;;;;8.40;99.90;;;;;;8377565;28;20299;-72
2023/01/03 19:54:53;;;;;;;;;;;8.40;99.90;;;;;;8393641;28;20027;-72
2023/01/03 19:58:55;;;;;;;;;;;8.40;99.90;;;;;;8369024;28;19924;-72
2023/01/03 20:03:05;;;;;;;;;;;8.30;99.90;;;;;;8386023;28;20006;-72
2023/01/03 20:07:13;;;;;;;;;;;8.40;99.90;;;;;;8381771;28;19952;-72
2023/01/03 20:11:16;;;;;;;;;;;8.30;99.90;;;;;;8402644;28;20376;-72
2023/01/03 20:15:22;;;;;;;;;;;8.30;99.90;;;;;;8385266;28;20020;-72
2023/01/03 20:19:24;;;;;;;;;;;8.30;99.90;;;;;;8385340;28;19928;-73
2023/01/03 20:23:28;;;;;;;;;;;8.30;99.90;;;;;;8375889;28;20043;-72
2023/01/03 20:27:30;;;;;;;;;;;8.30;99.90;;;;;;8378337;28;20056;-72
2023/01/03 20:31:32;;;;;;;;;;;8.30;99.90;;;;;;8381819;28;19968;-72
2023/01/03 20:35:34;;;;;;;;;;;8.30;99.90;;;;;;8386865;28;19936;-73
2023/01/03 20:39:55;;;;;;;;;;;8.30;99.90;;;;;;8364834;28;19939;-72
2023/01/03 20:43:57;;;;;;;;;;;8.40;99.90;;;;;;8401109;28;19930;-72
2023/01/03 20:47:59;;;;;;;;;;;8.40;99.90;;;;;;8380641;28;19928;-72
2023/01/03 20:52:00;;;;;;;;;;;8.40;99.90;;;;;;8377338;28;20376;-72
2023/01/03 20:56:04;;;;;;;;;;;8.50;99.90;;;;;;8376703;28;19947;-72
2023/01/03 21:00:28;;;;;;;;;;;8.50;99.90;;;;;;8389767;28;19975;-72
2023/01/03 21:04:30;;;;;;;;;;;8.50;99.90;;;;;;8371832;28;19925;-72
2023/01/03 21:12:52;;;;;;;;;;;8.50;99.90;;;;;;8380092;28;19924;-72
2023/01/03 21:16:54;;;;;;;;;;;8.50;99.90;;;;;;8380633;28;20008;-72
2023/01/03 21:20:55;;;;;;;;;;;8.60;99.90;;;;;;8384720;28;19932;-72
2023/01/03 21:24:57;;;;;;;;;;;8.60;99.90;;;;;;8380357;28;19931;-73
2023/01/03 21:28:59;;;;;;;;;;;8.60;99.90;;;;;;8382002;28;19940;-72
2023/01/03 21:33:00;;;;;;;;;;;8.60;99.90;;;;;;8398227;28;19924;-72
2023/01/03 21:37:02;;;;;;;;;;;8.60;99.90;;;;;;8366118;28;19924;-73
2023/01/03 21:41:04;;;;;;;;;;;8.70;99.90;;;;;;8369723;28;20292;-72
2023/01/03 21:45:09;;;;;;;;;;;8.70;99.90;;;;;;8373207;28;19935;-72
2023/01/03 21:49:11;;;;;;;;;;;8.70;99.90;;;;;;8367293;28;20287;-72
2023/01/03 21:53:13;;;;;;;;;;;8.70;99.90;;;;;;8375473;28;19929;-72
2023/01/03 21:57:15;;;;;;;;;;;8.70;99.90;;;;;;8376933;28;19932;-73
2023/01/03 22:01:23;;;;;;;;;;;8.80;99.90;;;;;;8370807;28;19924;-72
2023/01/03 22:05:25;;;;;;;;;;;8.80;99.90;;;;;;8368379;28;19925;-72
2023/01/03 22:13:48;;;;;;;;;;;8.80;99.90;;;;;;8387629;28;20058;-72
2023/01/03 22:17:50;;;;;;;;;;;8.80;99.90;;;;;;8367496;28;20434;-72
2023/01/03 22:21:51;;;;;;;;;;;8.90;99.90;;;;;;8358721;28;19935;-72
2023/01/03 22:25:53;;;;;;;;;;;8.90;99.90;;;;;;8377688;28;20372;-72
2023/01/03 22:29:55;;;;;;;;;;;8.90;99.90;;;;;;8384337;28;19925;-72
2023/01/03 22:39:00;;;;;;;;;;;9.00;99.90;;;;;;8397242;28;19928;-72
2023/01/03 22:43:01;;;;;;;;;;;9.00;99.90;;;;;;8383971;28;19930;-72
2023/01/03 22:47:03;;;;;;;;;;;9.10;99.90;;;;;;8395675;28;19928;-72
2023/01/03 22:51:10;;;;;;;;;;;9.10;99.90;;;;;;8398010;28;20277;-72
2023/01/03 22:55:11;;;;;;;;;;;9.10;99.90;;;;;;8380851;28;19928;-72
2023/01/03 22:59:13;;;;;;;;;;;9.20;99.90;;;;;;8385462;28;19975;-72
2023/01/03 23:03:15;;;;;;;;;;;9.20;99.90;;;;;;8384784;28;19924;-72
2023/01/03 23:07:16;;;;;;;;;;;9.10;99.90;;;;;;8385402;28;19924;-72
2023/01/03 23:15:40;;;;;;;;;;;9.20;99.90;;;;;;8387890;28;19936;-72
2023/01/03 23:19:42;;;;;;;;;;;9.20;99.90;;;;;;8392083;28;20469;-72
2023/01/03 23:23:47;;;;;;;;;;;9.20;99.90;;;;;;8360464;28;20690;-72
2023/01/03 23:27:49;;;;;;;;;;;9.10;99.90;;;;;;8371301;28;19974;-72
2023/01/03 23:31:51;;;;;;;;;;;9.10;99.90;;;;;;8364167;28;20147;-72
2023/01/03 23:35:53;;;;;;;;;;;9.00;99.90;;;;;;8376019;28;20418;-72
2023/01/03 23:39:55;;;;;;;;;;;8.90;99.90;;;;;;8380754;28;19931;-72
2023/01/03 23:43:56;;;;;;;;;;;8.90;99.90;;;;;;8382804;28;19931;-72
2023/01/03 23:47:58;;;;;;;;;;;8.80;99.90;;;;;;8384735;28;19925;-72
2023/01/03 23:51:59;;;;;;;;;;;8.80;99.90;;;;;;8374127;28;20015;-72
2023/01/03 23:56:05;;;;;;;;;;;8.70;99.90;;;;;;8385766;28;19931;-72
